sensor_id;sensor_type;location;lat;lon;timestamp;temperature;humidity
19622;DHT22;9958;33.196;-97.114;2023-09-07T00:01:43;37.50;53.00
19622;DHT22;9958;33.196;-97.114;2023-09-07T00:04:12;37.40;52.90
19622;DHT22;9958;33.196;-97.114;2023-09-07T00:06:40;37.40;52.30
19622;DHT22;9958;33.196;-97.114;2023-09-07T00:09:09;37.30;52.70
19622;DHT22;9958;33.196;-97.114;2023-09-07T00:11:39;37.30;52.60
19622;DHT22;9958;33.196;-97.114;2023-09-07T00:14:07;37.20;52.60
19622;DHT22;9958;33.196;-97.114;2023-09-07T00:16:36;37.10;53.00
19622;DHT22;9958;33.196;-97.114;2023-09-07T00:19:04;37.10;53.20
19622;DHT22;9958;33.196;-97.114;2023-09-07T00:21:33;37.00;53.40
19622;DHT22;9958;33.196;-97.114;2023-09-07T00:24:01;36.90;53.70
19622;DHT22;9958;33.196;-97.114;2023-09-07T00:26:31;36.90;53.90
19622;DHT22;9958;33.196;-97.114;2023-09-07T00:29:01;36.80;54.30
19622;DHT22;9958;33.196;-97.114;2023-09-07T00:31:30;36.70;54.30
19622;DHT22;9958;33.196;-97.114;2023-09-07T00:33:59;36.60;54.30
19622;DHT22;9958;33.196;-97.114;2023-09-07T00:36:27;36.50;54.60
19622;DHT22;9958;33.196;-97.114;2023-09-07T00:38:55;36.40;54.60
19622;DHT22;9958;33.196;-97.114;2023-09-07T00:41:24;36.30;54.80
19622;DHT22;9958;33.196;-97.114;2023-09-07T00:43:52;36.20;54.80
19622;DHT22;9958;33.196;-97.114;2023-09-07T00:46:22;36.20;55.40
19622;DHT22;9958;33.196;-97.114;2023-09-07T00:48:50;36.10;55.90
19622;DHT22;9958;33.196;-97.114;2023-09-07T00:51:19;36.00;55.80
19622;DHT22;9958;33.196;-97.114;2023-09-07T00:53:47;35.90;56.40
19622;DHT22;9958;33.196;-97.114;2023-09-07T00:56:16;35.80;56.60
19622;DHT22;9958;33.196;-97.114;2023-09-07T00:58:45;35.70;56.50
19622;DHT22;9958;33.196;-97.114;2023-09-07T01:01:13;35.60;57.00
19622;DHT22;9958;33.196;-97.114;2023-09-07T01:03:43;35.50;57.10
19622;DHT22;9958;33.196;-97.114;2023-09-07T01:06:15;35.40;57.40
19622;DHT22;9958;33.196;-97.114;2023-09-07T01:08:48;35.30;57.60
19622;DHT22;9958;33.196;-97.114;2023-09-07T01:11:19;35.20;57.80
19622;DHT22;9958;33.196;-97.114;2023-09-07T01:13:49;35.10;57.80
19622;DHT22;9958;33.196;-97.114;2023-09-07T01:16:20;34.90;58.30
19622;DHT22;9958;33.196;-97.114;2023-09-07T01:18:52;34.90;58.40
19622;DHT22;9958;33.196;-97.114;2023-09-07T01:21:21;34.70;58.40
19622;DHT22;9958;33.196;-97.114;2023-09-07T01:23:52;34.70;58.60
19622;DHT22;9958;33.196;-97.114;2023-09-07T01:26:20;34.60;59.00
19622;DHT22;9958;33.196;-97.114;2023-09-07T01:28:49;34.50;59.30
19622;DHT22;9958;33.196;-97.114;2023-09-07T01:31:18;34.40;59.50
19622;DHT22;9958;33.196;-97.114;2023-09-07T01:33:46;34.20;59.80
19622;DHT22;9958;33.196;-97.114;2023-09-07T01:36:14;34.20;60.10
19622;DHT22;9958;33.196;-97.114;2023-09-07T01:38:43;34.10;60.40
19622;DHT22;9958;33.196;-97.114;2023-09-07T01:41:13;34.00;60.40
19622;DHT22;9958;33.196;-97.114;2023-09-07T01:43:41;33.90;60.70
19622;DHT22;9958;33.196;-97.114;2023-09-07T01:46:09;33.90;60.50
19622;DHT22;9958;33.196;-97.114;2023-09-07T01:48:38;33.80;60.50
19622;DHT22;9958;33.196;-97.114;2023-09-07T01:51:08;33.80;62.00
19622;DHT22;9958;33.196;-97.114;2023-09-07T01:53:36;33.70;61.10
19622;DHT22;9958;33.196;-97.114;2023-09-07T01:56:05;33.70;61.10
19622;DHT22;9958;33.196;-97.114;2023-09-07T01:58:35;33.70;61.30
19622;DHT22;9958;33.196;-97.114;2023-09-07T02:01:03;33.70;61.30
19622;DHT22;9958;33.196;-97.114;2023-09-07T02:03:31;33.70;61.50
19622;DHT22;9958;33.196;-97.114;2023-09-07T02:06:00;33.60;61.70
19622;DHT22;9958;33.196;-97.114;2023-09-07T02:08:28;33.60;61.80
19622;DHT22;9958;33.196;-97.114;2023-09-07T02:10:57;33.60;61.80
19622;DHT22;9958;33.196;-97.114;2023-09-07T02:13:25;33.60;62.10
19622;DHT22;9958;33.196;-97.114;2023-09-07T02:15:55;33.50;62.20
19622;DHT22;9958;33.196;-97.114;2023-09-07T02:18:23;33.50;62.30
19622;DHT22;9958;33.196;-97.114;2023-09-07T02:20:52;33.50;62.30
19622;DHT22;9958;33.196;-97.114;2023-09-07T02:23:20;33.50;62.40
19622;DHT22;9958;33.196;-97.114;2023-09-07T02:25:49;33.50;62.50
19622;DHT22;9958;33.196;-97.114;2023-09-07T02:28:17;33.50;63.00
19622;DHT22;9958;33.196;-97.114;2023-09-07T02:30:45;33.40;62.80
19622;DHT22;9958;33.196;-97.114;2023-09-07T02:33:15;33.40;62.80
19622;DHT22;9958;33.196;-97.114;2023-09-07T02:35:43;33.40;62.90
19622;DHT22;9958;33.196;-97.114;2023-09-07T02:38:12;33.40;63.10
19622;DHT22;9958;33.196;-97.114;2023-09-07T02:40:41;33.40;63.40
19622;DHT22;9958;33.196;-97.114;2023-09-07T02:43:10;33.30;63.40
19622;DHT22;9958;33.196;-97.114;2023-09-07T02:45:38;33.30;63.40
19622;DHT22;9958;33.196;-97.114;2023-09-07T02:48:07;33.20;63.40
19622;DHT22;9958;33.196;-97.114;2023-09-07T02:50:37;33.20;63.50
19622;DHT22;9958;33.196;-97.114;2023-09-07T02:53:06;33.20;64.00
19622;DHT22;9958;33.196;-97.114;2023-09-07T02:55:34;33.20;64.40
19622;DHT22;9958;33.196;-97.114;2023-09-07T02:58:03;33.10;64.30
19622;DHT22;9958;33.196;-97.114;2023-09-07T03:00:32;33.10;64.20
19622;DHT22;9958;33.196;-97.114;2023-09-07T03:03:01;33.10;64.50
19622;DHT22;9958;33.196;-97.114;2023-09-07T03:05:30;33.10;64.70
19622;DHT22;9958;33.196;-97.114;2023-09-07T03:08:00;33.10;64.90
19622;DHT22;9958;33.196;-97.114;2023-09-07T03:10:29;33.00;65.20
19622;DHT22;9958;33.196;-97.114;2023-09-07T03:12:58;33.00;65.30
19622;DHT22;9958;33.196;-97.114;2023-09-07T03:15:26;32.90;65.40
19622;DHT22;9958;33.196;-97.114;2023-09-07T03:17:54;32.90;65.60
19622;DHT22;9958;33.196;-97.114;2023-09-07T03:20:23;32.90;65.90
19622;DHT22;9958;33.196;-97.114;2023-09-07T03:22:51;32.80;66.40
19622;DHT22;9958;33.196;-97.114;2023-09-07T03:25:21;32.80;66.50
19622;DHT22;9958;33.196;-97.114;2023-09-07T03:27:49;32.80;66.40
19622;DHT22;9958;33.196;-97.114;2023-09-07T03:30:18;32.70;66.50
19622;DHT22;9958;33.196;-97.114;2023-09-07T03:32:46;32.70;66.70
19622;DHT22;9958;33.196;-97.114;2023-09-07T03:35:14;32.70;66.70
19622;DHT22;9958;33.196;-97.114;2023-09-07T03:37:43;32.70;66.70
19622;DHT22;9958;33.196;-97.114;2023-09-07T03:40:11;32.70;66.70
19622;DHT22;9958;33.196;-97.114;2023-09-07T03:42:41;32.60;66.70
19622;DHT22;9958;33.196;-97.114;2023-09-07T03:45:11;32.60;67.10
19622;DHT22;9958;33.196;-97.114;2023-09-07T03:47:40;32.50;67.50
19622;DHT22;9958;33.196;-97.114;2023-09-07T03:50:09;32.50;67.80
19622;DHT22;9958;33.196;-97.114;2023-09-07T03:52:37;32.50;67.90
19622;DHT22;9958;33.196;-97.114;2023-09-07T03:55:06;32.50;68.20
19622;DHT22;9958;33.196;-97.114;2023-09-07T03:57:35;32.40;68.40
19622;DHT22;9958;33.196;-97.114;2023-09-07T04:00:07;32.40;69.70
19622;DHT22;9958;33.196;-97.114;2023-09-07T04:02:36;32.40;69.10
19622;DHT22;9958;33.196;-97.114;2023-09-07T04:05:05;32.30;69.50
19622;DHT22;9958;33.196;-97.114;2023-09-07T04:07:33;32.20;69.70
19622;DHT22;9958;33.196;-97.114;2023-09-07T04:10:01;32.30;69.80
19622;DHT22;9958;33.196;-97.114;2023-09-07T04:12:30;32.20;69.50
19622;DHT22;9958;33.196;-97.114;2023-09-07T04:15:01;32.20;69.70
19622;DHT22;9958;33.196;-97.114;2023-09-07T04:17:30;32.20;69.70
19622;DHT22;9958;33.196;-97.114;2023-09-07T04:20:07;32.20;69.80
19622;DHT22;9958;33.196;-97.114;2023-09-07T04:22:38;32.10;70.00
19622;DHT22;9958;33.196;-97.114;2023-09-07T04:25:07;32.10;69.80
19622;DHT22;9958;33.196;-97.114;2023-09-07T04:27:36;32.10;69.80
19622;DHT22;9958;33.196;-97.114;2023-09-07T04:30:05;32.10;70.00
19622;DHT22;9958;33.196;-97.114;2023-09-07T04:32:35;32.00;70.20
19622;DHT22;9958;33.196;-97.114;2023-09-07T04:35:04;32.00;70.20
19622;DHT22;9958;33.196;-97.114;2023-09-07T04:37:33;32.00;70.10
19622;DHT22;9958;33.196;-97.114;2023-09-07T04:40:01;32.00;70.20
19622;DHT22;9958;33.196;-97.114;2023-09-07T04:42:31;31.90;70.30
19622;DHT22;9958;33.196;-97.114;2023-09-07T04:44:59;31.90;70.70
19622;DHT22;9958;33.196;-97.114;2023-09-07T04:47:27;31.90;70.80
19622;DHT22;9958;33.196;-97.114;2023-09-07T04:49:57;31.80;70.80
19622;DHT22;9958;33.196;-97.114;2023-09-07T04:52:26;31.80;70.70
19622;DHT22;9958;33.196;-97.114;2023-09-07T04:54:54;31.70;70.90
19622;DHT22;9958;33.196;-97.114;2023-09-07T04:57:22;31.70;71.00
19622;DHT22;9958;33.196;-97.114;2023-09-07T04:59:51;31.70;71.10
19622;DHT22;9958;33.196;-97.114;2023-09-07T05:02:19;31.60;71.20
19622;DHT22;9958;33.196;-97.114;2023-09-07T05:04:47;31.60;71.40
19622;DHT22;9958;33.196;-97.114;2023-09-07T05:07:18;31.60;72.00
19622;DHT22;9958;33.196;-97.114;2023-09-07T05:09:46;31.60;72.00
19622;DHT22;9958;33.196;-97.114;2023-09-07T05:12:15;31.50;72.00
19622;DHT22;9958;33.196;-97.114;2023-09-07T05:14:44;31.50;72.40
19622;DHT22;9958;33.196;-97.114;2023-09-07T05:17:13;31.40;72.60
19622;DHT22;9958;33.196;-97.114;2023-09-07T05:19:41;31.40;72.90
19622;DHT22;9958;33.196;-97.114;2023-09-07T05:22:09;31.30;72.80
19622;DHT22;9958;33.196;-97.114;2023-09-07T05:24:40;31.30;72.90
19622;DHT22;9958;33.196;-97.114;2023-09-07T05:27:09;31.20;73.10
19622;DHT22;9958;33.196;-97.114;2023-09-07T05:29:38;31.20;73.10
19622;DHT22;9958;33.196;-97.114;2023-09-07T05:32:06;31.10;72.70
19622;DHT22;9958;33.196;-97.114;2023-09-07T05:34:35;31.10;72.70
19622;DHT22;9958;33.196;-97.114;2023-09-07T05:37:04;31.00;72.30
19622;DHT22;9958;33.196;-97.114;2023-09-07T05:39:32;31.00;72.30
19622;DHT22;9958;33.196;-97.114;2023-09-07T05:42:02;30.90;71.80
19622;DHT22;9958;33.196;-97.114;2023-09-07T05:44:31;30.90;71.40
19622;DHT22;9958;33.196;-97.114;2023-09-07T05:46:59;30.80;71.40
19622;DHT22;9958;33.196;-97.114;2023-09-07T05:49:29;30.80;71.40
19622;DHT22;9958;33.196;-97.114;2023-09-07T05:51:57;30.80;71.40
19622;DHT22;9958;33.196;-97.114;2023-09-07T05:54:25;30.70;71.20
19622;DHT22;9958;33.196;-97.114;2023-09-07T05:56:54;30.70;71.30
19622;DHT22;9958;33.196;-97.114;2023-09-07T05:59:24;30.60;71.20
19622;DHT22;9958;33.196;-97.114;2023-09-07T06:01:52;30.60;70.80
19622;DHT22;9958;33.196;-97.114;2023-09-07T06:04:20;30.60;71.20
19622;DHT22;9958;33.196;-97.114;2023-09-07T06:06:49;30.50;71.20
19622;DHT22;9958;33.196;-97.114;2023-09-07T06:09:17;30.50;71.10
19622;DHT22;9958;33.196;-97.114;2023-09-07T06:11:45;30.40;71.50
19622;DHT22;9958;33.196;-97.114;2023-09-07T06:14:14;30.30;70.90
19622;DHT22;9958;33.196;-97.114;2023-09-07T06:16:43;30.30;70.90
19622;DHT22;9958;33.196;-97.114;2023-09-07T06:19:12;30.20;70.80
19622;DHT22;9958;33.196;-97.114;2023-09-07T06:21:40;30.20;71.30
19622;DHT22;9958;33.196;-97.114;2023-09-07T06:24:08;30.20;71.80
19622;DHT22;9958;33.196;-97.114;2023-09-07T06:26:37;30.10;70.80
19622;DHT22;9958;33.196;-97.114;2023-09-07T06:29:05;30.00;70.70
19622;DHT22;9958;33.196;-97.114;2023-09-07T06:31:33;29.90;70.60
19622;DHT22;9958;33.196;-97.114;2023-09-07T06:34:03;29.90;70.60
19622;DHT22;9958;33.196;-97.114;2023-09-07T06:36:32;29.80;70.50
19622;DHT22;9958;33.196;-97.114;2023-09-07T06:39:00;29.80;70.50
19622;DHT22;9958;33.196;-97.114;2023-09-07T06:41:28;29.80;70.50
19622;DHT22;9958;33.196;-97.114;2023-09-07T06:43:57;29.80;70.60
19622;DHT22;9958;33.196;-97.114;2023-09-07T06:46:25;29.80;70.60
19622;DHT22;9958;33.196;-97.114;2023-09-07T06:48:53;29.70;71.10
19622;DHT22;9958;33.196;-97.114;2023-09-07T06:51:23;29.70;71.10
19622;DHT22;9958;33.196;-97.114;2023-09-07T06:53:51;29.70;71.20
19622;DHT22;9958;33.196;-97.114;2023-09-07T06:56:20;29.70;71.20
19622;DHT22;9958;33.196;-97.114;2023-09-07T06:58:48;29.60;71.10
19622;DHT22;9958;33.196;-97.114;2023-09-07T07:01:16;29.60;71.50
19622;DHT22;9958;33.196;-97.114;2023-09-07T07:03:45;29.60;71.70
19622;DHT22;9958;33.196;-97.114;2023-09-07T07:06:13;29.60;72.00
19622;DHT22;9958;33.196;-97.114;2023-09-07T07:08:43;29.50;71.90
19622;DHT22;9958;33.196;-97.114;2023-09-07T07:11:11;29.50;71.90
19622;DHT22;9958;33.196;-97.114;2023-09-07T07:13:39;29.50;72.50
19622;DHT22;9958;33.196;-97.114;2023-09-07T07:16:08;29.40;72.90
19622;DHT22;9958;33.196;-97.114;2023-09-07T07:18:36;29.30;73.50
19622;DHT22;9958;33.196;-97.114;2023-09-07T07:21:06;29.30;73.80
19622;DHT22;9958;33.196;-97.114;2023-09-07T07:23:35;29.30;73.90
19622;DHT22;9958;33.196;-97.114;2023-09-07T07:26:05;29.20;73.80
19622;DHT22;9958;33.196;-97.114;2023-09-07T07:28:35;29.20;74.10
19622;DHT22;9958;33.196;-97.114;2023-09-07T07:31:07;29.10;74.20
19622;DHT22;9958;33.196;-97.114;2023-09-07T07:33:36;29.10;74.50
19622;DHT22;9958;33.196;-97.114;2023-09-07T07:36:05;29.10;74.60
19622;DHT22;9958;33.196;-97.114;2023-09-07T07:38:33;29.00;75.00
19622;DHT22;9958;33.196;-97.114;2023-09-07T07:41:02;29.00;75.20
19622;DHT22;9958;33.196;-97.114;2023-09-07T07:43:32;28.90;75.90
19622;DHT22;9958;33.196;-97.114;2023-09-07T07:46:01;28.90;76.40
19622;DHT22;9958;33.196;-97.114;2023-09-07T07:48:29;28.80;76.90
19622;DHT22;9958;33.196;-97.114;2023-09-07T07:51:01;28.80;77.30
19622;DHT22;9958;33.196;-97.114;2023-09-07T07:53:30;28.80;77.30
19622;DHT22;9958;33.196;-97.114;2023-09-07T07:55:58;28.70;77.50
19622;DHT22;9958;33.196;-97.114;2023-09-07T07:58:27;28.70;78.10
19622;DHT22;9958;33.196;-97.114;2023-09-07T08:00:57;28.60;78.70
19622;DHT22;9958;33.196;-97.114;2023-09-07T08:03:25;28.60;79.30
19622;DHT22;9958;33.196;-97.114;2023-09-07T08:05:53;28.50;79.60
19622;DHT22;9958;33.196;-97.114;2023-09-07T08:08:22;28.40;79.60
19622;DHT22;9958;33.196;-97.114;2023-09-07T08:10:50;28.40;79.70
19622;DHT22;9958;33.196;-97.114;2023-09-07T08:13:18;28.40;80.00
19622;DHT22;9958;33.196;-97.114;2023-09-07T08:15:47;28.30;80.50
19622;DHT22;9958;33.196;-97.114;2023-09-07T08:18:16;28.30;80.90
19622;DHT22;9958;33.196;-97.114;2023-09-07T08:20:45;28.20;81.40
19622;DHT22;9958;33.196;-97.114;2023-09-07T08:23:13;28.20;81.80
19622;DHT22;9958;33.196;-97.114;2023-09-07T08:25:41;28.10;81.90
19622;DHT22;9958;33.196;-97.114;2023-09-07T08:28:12;28.10;82.10
19622;DHT22;9958;33.196;-97.114;2023-09-07T08:30:42;28.00;82.20
19622;DHT22;9958;33.196;-97.114;2023-09-07T08:33:10;28.00;82.30
19622;DHT22;9958;33.196;-97.114;2023-09-07T08:35:41;27.90;82.60
19622;DHT22;9958;33.196;-97.114;2023-09-07T08:38:10;27.90;83.20
19622;DHT22;9958;33.196;-97.114;2023-09-07T08:40:39;27.90;83.60
19622;DHT22;9958;33.196;-97.114;2023-09-07T08:43:09;27.90;83.90
19622;DHT22;9958;33.196;-97.114;2023-09-07T08:45:48;27.80;84.10
19622;DHT22;9958;33.196;-97.114;2023-09-07T08:48:19;27.80;84.60
19622;DHT22;9958;33.196;-97.114;2023-09-07T08:50:49;27.70;84.80
19622;DHT22;9958;33.196;-97.114;2023-09-07T08:53:19;27.70;85.00
19622;DHT22;9958;33.196;-97.114;2023-09-07T08:55:48;27.70;85.40
19622;DHT22;9958;33.196;-97.114;2023-09-07T08:58:16;27.60;85.80
19622;DHT22;9958;33.196;-97.114;2023-09-07T09:00:45;27.60;86.20
19622;DHT22;9958;33.196;-97.114;2023-09-07T09:03:13;27.60;86.70
19622;DHT22;9958;33.196;-97.114;2023-09-07T09:05:41;27.60;87.20
19622;DHT22;9958;33.196;-97.114;2023-09-07T09:08:12;27.50;87.60
19622;DHT22;9958;33.196;-97.114;2023-09-07T09:10:41;27.50;88.00
19622;DHT22;9958;33.196;-97.114;2023-09-07T09:13:09;27.50;88.70
19622;DHT22;9958;33.196;-97.114;2023-09-07T09:15:37;27.40;89.00
19622;DHT22;9958;33.196;-97.114;2023-09-07T09:18:10;27.40;90.00
19622;DHT22;9958;33.196;-97.114;2023-09-07T09:20:40;27.40;90.20
19622;DHT22;9958;33.196;-97.114;2023-09-07T09:23:08;27.40;90.50
19622;DHT22;9958;33.196;-97.114;2023-09-07T09:25:40;27.40;90.80
19622;DHT22;9958;33.196;-97.114;2023-09-07T09:28:09;27.40;91.10
19622;DHT22;9958;33.196;-97.114;2023-09-07T09:30:38;27.30;91.60
19622;DHT22;9958;33.196;-97.114;2023-09-07T09:33:10;27.30;92.00
19622;DHT22;9958;33.196;-97.114;2023-09-07T09:35:39;27.30;92.40
19622;DHT22;9958;33.196;-97.114;2023-09-07T09:38:07;27.30;92.70
19622;DHT22;9958;33.196;-97.114;2023-09-07T09:40:36;27.30;93.20
19622;DHT22;9958;33.196;-97.114;2023-09-07T09:43:06;27.30;93.60
19622;DHT22;9958;33.196;-97.114;2023-09-07T09:45:37;27.30;94.60
19622;DHT22;9958;33.196;-97.114;2023-09-07T09:48:06;27.40;94.60
19622;DHT22;9958;33.196;-97.114;2023-09-07T09:50:34;27.30;95.00
19622;DHT22;9958;33.196;-97.114;2023-09-07T09:53:06;27.30;95.30
19622;DHT22;9958;33.196;-97.114;2023-09-07T09:55:35;27.30;95.70
19622;DHT22;9958;33.196;-97.114;2023-09-07T09:58:03;27.30;96.00
19622;DHT22;9958;33.196;-97.114;2023-09-07T10:00:34;27.30;96.60
19622;DHT22;9958;33.196;-97.114;2023-09-07T10:03:07;27.30;96.70
19622;DHT22;9958;33.196;-97.114;2023-09-07T10:05:37;27.30;97.30
19622;DHT22;9958;33.196;-97.114;2023-09-07T10:08:09;27.30;97.10
19622;DHT22;9958;33.196;-97.114;2023-09-07T10:10:41;27.30;97.30
19622;DHT22;9958;33.196;-97.114;2023-09-07T10:13:14;27.30;96.60
19622;DHT22;9958;33.196;-97.114;2023-09-07T10:15:44;27.30;96.50
19622;DHT22;9958;33.196;-97.114;2023-09-07T10:18:14;27.30;95.60
19622;DHT22;9958;33.196;-97.114;2023-09-07T10:20:54;27.30;95.40
19622;DHT22;9958;33.196;-97.114;2023-09-07T10:23:36;27.30;95.50
19622;DHT22;9958;33.196;-97.114;2023-09-07T10:26:05;27.30;94.90
19622;DHT22;9958;33.196;-97.114;2023-09-07T10:28:33;27.20;94.80
19622;DHT22;9958;33.196;-97.114;2023-09-07T10:31:04;27.20;94.80
19622;DHT22;9958;33.196;-97.114;2023-09-07T10:33:34;27.20;95.30
19622;DHT22;9958;33.196;-97.114;2023-09-07T10:36:03;27.20;95.60
19622;DHT22;9958;33.196;-97.114;2023-09-07T10:38:32;27.10;95.60
19622;DHT22;9958;33.196;-97.114;2023-09-07T10:41:01;27.10;95.90
19622;DHT22;9958;33.196;-97.114;2023-09-07T10:43:31;27.10;96.10
19622;DHT22;9958;33.196;-97.114;2023-09-07T10:46:00;27.00;96.20
19622;DHT22;9958;33.196;-97.114;2023-09-07T10:48:34;27.00;96.50
19622;DHT22;9958;33.196;-97.114;2023-09-07T10:51:02;27.00;96.90
19622;DHT22;9958;33.196;-97.114;2023-09-07T10:53:32;27.00;97.20
19622;DHT22;9958;33.196;-97.114;2023-09-07T10:56:05;26.90;97.40
19622;DHT22;9958;33.196;-97.114;2023-09-07T10:58:35;26.90;97.60
19622;DHT22;9958;33.196;-97.114;2023-09-07T11:01:05;26.90;97.70
19622;DHT22;9958;33.196;-97.114;2023-09-07T11:03:36;26.90;97.80
19622;DHT22;9958;33.196;-97.114;2023-09-07T11:06:08;26.80;98.10
19622;DHT22;9958;33.196;-97.114;2023-09-07T11:08:37;26.80;98.20
19622;DHT22;9958;33.196;-97.114;2023-09-07T11:11:05;26.80;98.60
19622;DHT22;9958;33.196;-97.114;2023-09-07T11:13:33;26.70;99.10
19622;DHT22;9958;33.196;-97.114;2023-09-07T11:16:02;26.70;99.50
19622;DHT22;9958;33.196;-97.114;2023-09-07T11:18:30;26.70;99.70
19622;DHT22;9958;33.196;-97.114;2023-09-07T11:21:01;26.70;99.90
19622;DHT22;9958;33.196;-97.114;2023-09-07T11:23:31;26.70;99.90
19622;DHT22;9958;33.196;-97.114;2023-09-07T11:26:04;26.60;99.90
19622;DHT22;9958;33.196;-97.114;2023-09-07T11:28:33;26.70;99.90
19622;DHT22;9958;33.196;-97.114;2023-09-07T11:31:01;26.60;99.90
19622;DHT22;9958;33.196;-97.114;2023-09-07T11:33:32;26.60;99.90
19622;DHT22;9958;33.196;-97.114;2023-09-07T11:36:03;26.50;99.90
19622;DHT22;9958;33.196;-97.114;2023-09-07T11:38:36;26.50;99.90
19622;DHT22;9958;33.196;-97.114;2023-09-07T11:41:04;26.50;99.90
19622;DHT22;9958;33.196;-97.114;2023-09-07T11:43:32;26.50;99.90
19622;DHT22;9958;33.196;-97.114;2023-09-07T11:46:01;26.40;99.90
19622;DHT22;9958;33.196;-97.114;2023-09-07T11:48:30;26.40;99.90
19622;DHT22;9958;33.196;-97.114;2023-09-07T11:50:58;26.40;99.90
19622;DHT22;9958;33.196;-97.114;2023-09-07T11:53:28;26.40;99.90
19622;DHT22;9958;33.196;-97.114;2023-09-07T11:55:57;26.30;99.90
19622;DHT22;9958;33.196;-97.114;2023-09-07T11:58:25;26.30;99.90
19622;DHT22;9958;33.196;-97.114;2023-09-07T12:00:54;26.30;99.90
19622;DHT22;9958;33.196;-97.114;2023-09-07T12:03:22;26.30;99.90
19622;DHT22;9958;33.196;-97.114;2023-09-07T12:05:51;26.20;99.90
19622;DHT22;9958;33.196;-97.114;2023-09-07T12:08:19;26.20;99.90
19622;DHT22;9958;33.196;-97.114;2023-09-07T12:10:49;26.20;99.90
19622;DHT22;9958;33.196;-97.114;2023-09-07T12:13:18;26.20;99.90
19622;DHT22;9958;33.196;-97.114;2023-09-07T12:15:46;26.20;99.90
19622;DHT22;9958;33.196;-97.114;2023-09-07T12:18:14;26.20;99.90
19622;DHT22;9958;33.196;-97.114;2023-09-07T12:20:43;26.20;99.90
19622;DHT22;9958;33.196;-97.114;2023-09-07T12:23:12;26.20;99.90
19622;DHT22;9958;33.196;-97.114;2023-09-07T12:25:40;26.20;99.90
19622;DHT22;9958;33.196;-97.114;2023-09-07T12:28:10;26.20;99.90
19622;DHT22;9958;33.196;-97.114;2023-09-07T12:30:38;26.20;99.90
19622;DHT22;9958;33.196;-97.114;2023-09-07T12:33:10;26.40;99.90
19622;DHT22;9958;33.196;-97.114;2023-09-07T12:35:39;26.70;99.90
19622;DHT22;9958;33.196;-97.114;2023-09-07T12:38:07;27.10;99.90
19622;DHT22;9958;33.196;-97.114;2023-09-07T12:40:37;27.70;99.90
19622;DHT22;9958;33.196;-97.114;2023-09-07T12:43:05;28.40;99.90
19622;DHT22;9958;33.196;-97.114;2023-09-07T12:45:35;29.00;97.80
19622;DHT22;9958;33.196;-97.114;2023-09-07T12:48:04;29.80;95.50
19622;DHT22;9958;33.196;-97.114;2023-09-07T12:50:33;30.30;93.70
19622;DHT22;9958;33.196;-97.114;2023-09-07T12:53:01;30.80;92.40
19622;DHT22;9958;33.196;-97.114;2023-09-07T12:55:29;31.20;91.30
19622;DHT22;9958;33.196;-97.114;2023-09-07T12:57:59;31.60;90.00
19622;DHT22;9958;33.196;-97.114;2023-09-07T13:00:28;31.90;87.80
19622;DHT22;9958;33.196;-97.114;2023-09-07T13:02:58;32.10;87.50
19622;DHT22;9958;33.196;-97.114;2023-09-07T13:05:26;32.10;86.30
19622;DHT22;9958;33.196;-97.114;2023-09-07T13:07:55;32.00;85.90
19622;DHT22;9958;33.196;-97.114;2023-09-07T13:10:25;31.80;86.80
19622;DHT22;9958;33.196;-97.114;2023-09-07T13:12:54;31.60;86.90
19622;DHT22;9958;33.196;-97.114;2023-09-07T13:15:22;31.40;89.10
19622;DHT22;9958;33.196;-97.114;2023-09-07T13:17:50;31.20;89.80
19622;DHT22;9958;33.196;-97.114;2023-09-07T13:20:20;31.00;90.30
19622;DHT22;9958;33.196;-97.114;2023-09-07T13:22:49;30.90;91.00
19622;DHT22;9958;33.196;-97.114;2023-09-07T13:25:18;30.80;91.10
19622;DHT22;9958;33.196;-97.114;2023-09-07T13:27:46;30.70;91.50
19622;DHT22;9958;33.196;-97.114;2023-09-07T13:30:15;30.60;91.20
19622;DHT22;9958;33.196;-97.114;2023-09-07T13:32:44;30.50;90.40
19622;DHT22;9958;33.196;-97.114;2023-09-07T13:35:13;30.50;90.50
19622;DHT22;9958;33.196;-97.114;2023-09-07T13:37:43;30.50;90.60
19622;DHT22;9958;33.196;-97.114;2023-09-07T13:40:12;30.50;90.50
19622;DHT22;9958;33.196;-97.114;2023-09-07T13:42:41;30.50;90.70
19622;DHT22;9958;33.196;-97.114;2023-09-07T13:45:10;30.60;90.80
19622;DHT22;9958;33.196;-97.114;2023-09-07T13:47:38;30.70;90.70
19622;DHT22;9958;33.196;-97.114;2023-09-07T13:50:07;30.80;91.10
19622;DHT22;9958;33.196;-97.114;2023-09-07T13:52:36;30.90;90.70
19622;DHT22;9958;33.196;-97.114;2023-09-07T13:55:07;31.00;90.00
19622;DHT22;9958;33.196;-97.114;2023-09-07T13:57:36;31.10;87.90
19622;DHT22;9958;33.196;-97.114;2023-09-07T14:00:06;31.30;87.00
19622;DHT22;9958;33.196;-97.114;2023-09-07T14:02:34;31.50;85.60
19622;DHT22;9958;33.196;-97.114;2023-09-07T14:05:02;31.60;84.20
19622;DHT22;9958;33.196;-97.114;2023-09-07T14:07:31;31.80;83.40
19622;DHT22;9958;33.196;-97.114;2023-09-07T14:09:59;32.00;83.20
19622;DHT22;9958;33.196;-97.114;2023-09-07T14:12:30;32.20;82.90
19622;DHT22;9958;33.196;-97.114;2023-09-07T14:14:58;32.30;81.80
19622;DHT22;9958;33.196;-97.114;2023-09-07T14:17:26;32.50;80.30
19622;DHT22;9958;33.196;-97.114;2023-09-07T14:19:55;32.60;79.90
19622;DHT22;9958;33.196;-97.114;2023-09-07T14:22:23;32.80;79.50
19622;DHT22;9958;33.196;-97.114;2023-09-07T14:24:51;32.90;78.40
19622;DHT22;9958;33.196;-97.114;2023-09-07T14:27:19;33.10;78.80
19622;DHT22;9958;33.196;-97.114;2023-09-07T14:29:49;33.20;76.90
19622;DHT22;9958;33.196;-97.114;2023-09-07T14:32:18;33.40;75.90
19622;DHT22;9958;33.196;-97.114;2023-09-07T14:34:46;33.50;75.10
19622;DHT22;9958;33.196;-97.114;2023-09-07T14:37:14;33.60;75.40
19622;DHT22;9958;33.196;-97.114;2023-09-07T14:39:43;33.80;74.20
19622;DHT22;9958;33.196;-97.114;2023-09-07T14:42:14;33.90;74.10
19622;DHT22;9958;33.196;-97.114;2023-09-07T14:44:44;34.00;74.00
19622;DHT22;9958;33.196;-97.114;2023-09-07T14:47:14;34.20;74.20
19622;DHT22;9958;33.196;-97.114;2023-09-07T14:49:42;34.40;73.50
19622;DHT22;9958;33.196;-97.114;2023-09-07T14:52:10;34.50;72.10
19622;DHT22;9958;33.196;-97.114;2023-09-07T14:54:39;34.60;71.00
19622;DHT22;9958;33.196;-97.114;2023-09-07T14:57:07;34.70;71.60
19622;DHT22;9958;33.196;-97.114;2023-09-07T14:59:36;34.80;70.50
19622;DHT22;9958;33.196;-97.114;2023-09-07T15:02:05;35.00;70.40
19622;DHT22;9958;33.196;-97.114;2023-09-07T15:04:35;35.10;69.80
19622;DHT22;9958;33.196;-97.114;2023-09-07T15:07:04;35.20;69.60
19622;DHT22;9958;33.196;-97.114;2023-09-07T15:09:33;35.40;68.90
19622;DHT22;9958;33.196;-97.114;2023-09-07T15:12:01;35.50;66.50
19622;DHT22;9958;33.196;-97.114;2023-09-07T15:14:29;35.60;64.90
19622;DHT22;9958;33.196;-97.114;2023-09-07T15:16:57;35.70;64.60
19622;DHT22;9958;33.196;-97.114;2023-09-07T15:19:26;35.80;63.50
19622;DHT22;9958;33.196;-97.114;2023-09-07T15:21:56;35.90;63.60
19622;DHT22;9958;33.196;-97.114;2023-09-07T15:24:24;36.10;63.10
19622;DHT22;9958;33.196;-97.114;2023-09-07T15:26:52;36.30;62.30